createdAt,value
2017-08-23T09:42:18.355Z,983.6
2017-08-23T09:44:08.429Z,0.0
2017-08-23T09:45:09.773Z,0.0
2017-08-23T09:46:11.123Z,0.0
2017-08-23T09:47:12.483Z,0.0
2017-08-23T09:48:13.834Z,0.0
2017-08-23T09:49:15.192Z,0.0
2017-08-23T09:50:16.554Z,0.0
2017-08-23T11:29:52.352Z,983.1
2017-08-23T11:30:53.713Z,983.1
2017-08-23T11:32:15.723Z,983.1
2017-08-23T11:33:17.085Z,983.1
2017-08-23T11:34:39.085Z,983.1
2017-08-23T11:35:40.445Z,983.1
2017-08-23T11:37:02.533Z,983.0
2017-08-23T11:38:03.901Z,983.1
2017-08-23T11:39:05.262Z,983.0
2017-08-23T11:40:06.625Z,983.0
2017-08-23T11:41:07.985Z,983.0
2017-08-23T11:42:09.350Z,983.0
2017-08-23T11:43:10.713Z,983.0
2017-08-23T11:44:12.075Z,983.0
2017-08-23T11:45:13.476Z,983.0
2017-08-23T11:46:14.839Z,983.0
2017-08-23T11:47:16.202Z,982.9
2017-08-23T11:48:17.562Z,982.9
2017-08-23T11:49:18.926Z,982.9
2017-08-23T11:50:20.289Z,982.9
2017-08-23T11:51:21.650Z,982.9
2017-08-23T11:52:23.012Z,982.9
2017-08-23T11:53:24.368Z,982.8
2017-08-23T11:54:25.736Z,982.9
2017-08-23T11:55:27.098Z,982.9
2017-08-23T11:56:28.462Z,982.9
2017-08-23T11:57:29.822Z,982.9
2017-08-23T11:58:31.222Z,982.9
2017-08-23T11:59:32.547Z,982.9
2017-08-23T12:00:33.914Z,982.9
2017-08-23T12:01:35.271Z,982.8
2017-08-23T12:02:36.634Z,982.9
2017-08-23T12:03:37.995Z,982.9
2017-08-23T12:04:39.357Z,982.9
2017-08-23T12:05:40.719Z,982.9
2017-08-23T12:06:42.086Z,982.8
2017-08-23T12:07:43.483Z,982.9
2017-08-23T12:08:44.845Z,982.9
2017-08-23T12:09:46.216Z,982.9
2017-08-23T12:10:47.575Z,982.9
2017-08-23T12:11:48.937Z,982.9
2017-08-23T12:12:50.295Z,982.9
2017-08-23T12:13:51.662Z,982.8
2017-08-23T12:14:53.036Z,982.9
2017-08-23T12:15:54.415Z,982.9
2017-08-23T12:16:55.774Z,982.9
2017-08-23T12:17:57.137Z,982.9
2017-08-23T12:18:58.511Z,982.9
2017-08-23T12:19:59.858Z,982.8
2017-08-23T12:21:01.219Z,982.8
2017-08-23T12:22:02.635Z,982.8
2017-08-23T12:23:04.117Z,982.8
2017-08-23T12:24:05.636Z,982.7
2017-08-23T12:25:06.991Z,982.8
2017-08-23T12:26:08.385Z,982.7
2017-08-23T12:27:09.818Z,982.7
2017-08-23T12:28:11.186Z,982.7
2017-08-23T12:29:12.615Z,982.7
2017-08-23T12:30:14.048Z,982.7
2017-08-23T12:31:15.436Z,982.7
2017-08-23T12:32:16.834Z,982.7
2017-08-23T12:33:18.195Z,982.7
2017-08-23T12:34:19.557Z,982.7
2017-08-23T12:35:20.923Z,982.7
2017-08-23T12:36:22.287Z,982.8
2017-08-23T12:37:23.648Z,982.7
2017-08-23T12:38:25.011Z,982.7
2017-08-23T12:39:26.374Z,982.7
2017-08-23T12:40:30.983Z,982.6
2017-08-23T12:41:32.250Z,982.6
2017-08-23T12:42:33.614Z,982.6
2017-08-23T12:43:34.976Z,982.6
2017-08-23T12:44:36.340Z,982.6
2017-08-23T12:45:37.701Z,982.6
2017-08-23T12:46:39.984Z,982.6
2017-08-23T12:47:41.348Z,982.6
2017-08-23T12:48:42.714Z,982.6
2017-08-23T12:49:44.077Z,982.6
2017-08-23T12:50:45.439Z,982.5
2017-08-23T12:51:46.801Z,982.5
2017-08-23T12:52:48.161Z,982.6
2017-08-23T12:53:49.523Z,982.6
2017-08-23T12:54:50.884Z,982.6
2017-08-23T12:55:52.249Z,982.5
2017-08-23T12:56:53.611Z,982.6
2017-08-23T12:57:54.976Z,982.5
2017-08-23T12:58:56.923Z,982.5
2017-08-23T12:59:58.476Z,982.6
2017-08-23T13:00:59.838Z,982.5
2017-08-23T13:02:01.202Z,982.5
2017-08-23T13:03:02.568Z,982.5
2017-08-23T13:04:03.931Z,982.5
